McLeod, Montana
Current Conditions -  °F | °C
As of 5:53 PM on Tuesday 21 Oct 2014 (Local Time) from KLVM Reporting Station
Overcast Overcast  
Wind Chill: 36°   Ceiling: 5000
Heat Index: 47°   Visibility: 10mi
Dew Point: 35°   Wind: 43mph
Humidity: 63%   Direction: 260°W
Pressure: 29.84"   Gusts: 55mph
Location:  45.66°N, 110.12°W
Report Text: KLVM 212353Z AUTO 26037G48KT 10SM BKN050 OVC070 08/02 A2984 RMK AO2 PK WND 27049/2341 SLP097 T00830017 10206 20083 53027
Loading
Personal Weather Stations






























Interactive Weather Map
Tropical Storm Tracking
New forecast layout! Learn more

10-Day Weather Forecast

Advertisements
Track Severe Weather on mobile